createdAt,value
2022-10-15T00:03:16.957Z,100437.22
2022-10-15T00:13:19.736Z,100443.25
2022-10-15T00:23:21.881Z,100426.91
2022-10-15T00:33:23.487Z,100432.06
2022-10-15T00:43:42.212Z,100431.16
2022-10-15T00:53:44.788Z,100419.97
2022-10-15T01:03:46.701Z,100398.47
2022-10-15T01:14:16.266Z,100404.50
2022-10-15T01:24:39.515Z,100413.06
2022-10-15T01:35:12.411Z,100416.50
2022-10-15T01:45:20.212Z,100400.22
2022-10-15T01:55:25.564Z,100383.91
2022-10-15T02:05:32.647Z,100399.38
2022-10-15T02:16:13.133Z,100393.34
2022-10-15T02:26:16.324Z,100390.78
2022-10-15T02:36:20.454Z,100377.91
2022-10-15T02:46:26.152Z,100384.75
2022-10-15T03:06:30.393Z,100368.31
2022-10-15T03:16:32.190Z,100378.56
2022-10-15T03:26:33.879Z,100360.47
2022-10-15T03:36:35.461Z,100366.44
2022-10-15T03:46:37.069Z,100369.84
2022-10-15T03:56:38.854Z,100386.16
2022-10-15T04:06:40.645Z,100379.16
2022-10-15T04:16:43.384Z,100362.84
2022-10-15T04:26:44.993Z,100359.34
2022-10-15T04:36:46.599Z,100365.31
2022-10-15T04:46:54.212Z,100373.84
2022-10-15T04:56:55.908Z,100372.97
2022-10-15T05:06:59.579Z,100367.91
2022-10-15T05:17:05.220Z,100380.06
2022-10-15T05:27:06.883Z,100388.69
2022-10-15T05:37:08.886Z,100385.38
2022-10-15T05:47:12.437Z,100380.34
2022-10-15T05:57:14.030Z,100392.41
2022-10-15T06:07:15.999Z,100406.22
2022-10-15T06:17:22.114Z,100427.72
2022-10-15T06:27:25.376Z,100415.75
2022-10-15T06:37:29.654Z,100435.50
2022-10-15T06:47:31.849Z,100433.75
2022-10-15T06:57:33.618Z,100444.78
2022-10-15T07:07:35.891Z,100452.34
2022-10-15T07:17:39.390Z,100462.38
2022-10-15T07:27:41.166Z,100473.19
2022-10-15T07:37:42.984Z,100459.47
2022-10-15T07:47:47.043Z,100457.88
2022-10-15T07:57:48.766Z,100472.72
2022-10-15T08:07:50.346Z,100471.88
2022-10-15T08:17:52.055Z,100467.09
2022-10-15T08:27:54.358Z,100478.28
2022-10-15T08:37:58.032Z,100467.50
2022-10-15T08:48:12.869Z,100461.88
2022-10-15T08:58:24.908Z,100478.97
2022-10-15T09:08:59.699Z,100461.00
2022-10-15T09:19:04.834Z,100473.75
2022-10-15T09:29:22.530Z,100485.41
2022-10-15T09:39:41.010Z,100480.44
2022-10-15T09:49:50.800Z,100482.44
2022-10-15T09:59:57.546Z,100481.84
2022-10-15T10:10:07.244Z,100459.03
2022-10-15T10:20:31.136Z,100457.19
2022-10-15T10:30:53.122Z,100448.22
2022-10-15T10:41:15.986Z,100444.59
2022-10-15T10:51:21.931Z,100425.41
2022-10-15T11:01:24.033Z,100425.44
2022-10-15T11:11:36.197Z,100412.31
2022-10-15T11:22:15.448Z,100404.84
2022-10-15T11:32:47.995Z,100391.75
2022-10-15T11:43:02.737Z,100365.28
2022-10-15T11:53:28.315Z,100360.50
2022-10-15T12:03:35.761Z,100366.38
2022-10-15T12:14:13.489Z,100350.59
2022-10-15T12:24:48.454Z,100357.19
2022-10-15T12:34:58.680Z,100357.47
2022-10-15T12:45:21.956Z,100342.13
2022-10-15T12:55:36.046Z,100334.13
2022-10-15T13:05:37.859Z,100329.97
2022-10-15T13:15:40.597Z,100337.91
2022-10-15T13:25:45.224Z,100347.34
2022-10-15T13:35:46.947Z,100338.06
2022-10-15T13:45:49.248Z,100342.84
2022-10-15T13:55:57.475Z,100330.91
2022-10-15T14:06:20.315Z,100345.31
2022-10-15T14:16:25.111Z,100342.16
2022-10-15T14:26:27.766Z,100334.06
2022-10-15T14:36:41.222Z,100322.97
2022-10-15T14:46:53.089Z,100325.25
2022-10-15T14:56:54.650Z,100327.38
2022-10-15T15:06:58.302Z,100322.56
2022-10-15T15:17:02.924Z,100340.56
2022-10-15T15:27:04.644Z,100343.03
2022-10-15T15:37:15.020Z,100342.34
2022-10-15T15:47:23.652Z,100349.88
2022-10-15T15:57:27.034Z,100348.66
2022-10-15T16:07:29.798Z,100368.81
2022-10-15T16:17:31.534Z,100373.66
2022-10-15T16:27:34.613Z,100387.72
2022-10-15T16:37:36.395Z,100400.22
2022-10-15T16:47:38.240Z,100409.84
2022-10-15T16:57:39.817Z,100430.09
2022-10-15T17:07:41.797Z,100438.91
2022-10-15T17:17:43.789Z,100445.34
2022-10-15T17:27:46.995Z,100429.22
2022-10-15T17:37:48.652Z,100453.75
2022-10-15T17:47:53.735Z,100465.00
2022-10-15T17:57:58.530Z,100463.28
2022-10-15T18:08:00.751Z,100467.75
2022-10-15T18:18:05.082Z,100477.25
2022-10-15T18:28:08.515Z,100486.84
2022-10-15T18:38:12.474Z,100498.41
2022-10-15T18:48:14.344Z,100489.06
2022-10-15T18:58:15.994Z,100486.66
2022-10-15T19:08:21.377Z,100498.94
2022-10-15T19:18:25.218Z,100502.56
2022-10-15T19:28:28.103Z,100519.13
2022-10-15T19:38:33.884Z,100533.88
2022-10-15T19:48:37.242Z,100536.56
2022-10-15T19:58:39.059Z,100552.19
2022-10-15T20:08:40.859Z,100544.72
2022-10-15T20:18:42.902Z,100563.75
2022-10-15T20:28:46.314Z,100576.09
2022-10-15T20:38:50.297Z,100595.28
2022-10-15T20:48:52.723Z,100602.34
2022-10-15T20:58:56.623Z,100605.88
2022-10-15T21:08:58.576Z,100599.66
2022-10-15T21:19:00.304Z,100604.13
2022-10-15T21:29:01.996Z,100627.75
2022-10-15T21:39:07.758Z,100607.66
2022-10-15T21:49:23.073Z,100605.25
2022-10-15T21:59:24.705Z,100629.66
2022-10-15T22:09:27.459Z,100627.91
2022-10-15T22:19:29.145Z,100631.19
2022-10-15T22:29:34.512Z,100627.66
2022-10-15T22:39:36.953Z,100638.94
2022-10-15T22:49:38.571Z,100646.00
2022-10-15T22:59:43.692Z,100651.31
2022-10-15T23:09:46.328Z,100677.31
2022-10-15T23:19:49.001Z,100672.22
2022-10-15T23:29:56.940Z,100668.81
2022-10-15T23:40:10.896Z,100675.72
2022-10-15T23:50:12.521Z,100686.16
